createdAt,value
2023-03-05T00:00:24.067Z,3.00
2023-03-05T00:02:50.855Z,2.90
2023-03-05T00:05:17.841Z,2.90
2023-03-05T00:07:44.983Z,3.00
2023-03-05T00:10:12.358Z,3.30
2023-03-05T00:12:39.477Z,3.30
2023-03-05T00:15:07.008Z,3.40
2023-03-05T00:17:33.784Z,3.70
2023-03-05T00:20:02.345Z,3.70
2023-03-05T00:22:29.299Z,3.80
2023-03-05T00:24:56.420Z,3.90
2023-03-05T00:27:23.161Z,4.00
2023-03-05T00:29:50.261Z,4.00
2023-03-05T00:32:17.809Z,4.00
2023-03-05T00:34:44.721Z,4.00
2023-03-05T00:37:11.918Z,4.00
2023-03-05T00:39:38.663Z,3.90
2023-03-05T00:42:06.271Z,3.90
2023-03-05T00:44:33.044Z,3.90
2023-03-05T00:47:00.241Z,3.80
2023-03-05T00:49:27.034Z,3.90
2023-03-05T00:51:53.775Z,3.60
2023-03-05T00:54:21.807Z,3.80
2023-03-05T00:56:49.213Z,4.00
2023-03-05T00:59:16.466Z,4.20
2023-03-05T01:01:44.359Z,4.30
2023-03-05T01:04:11.148Z,4.20
2023-03-05T01:06:42.747Z,4.30
2023-03-05T01:09:09.528Z,4.20
2023-03-05T01:11:36.711Z,4.20
2023-03-05T01:14:04.109Z,4.20
2023-03-05T01:16:31.332Z,4.30
2023-03-05T01:18:58.300Z,4.20
2023-03-05T01:21:25.222Z,4.30
2023-03-05T01:23:52.131Z,4.20
2023-03-05T01:26:19.293Z,4.20
2023-03-05T01:28:46.527Z,4.00
2023-03-05T01:31:14.046Z,4.10
2023-03-05T01:33:40.824Z,4.10
2023-03-05T01:36:12.596Z,4.20
2023-03-05T01:38:39.597Z,4.10
2023-03-05T01:41:06.645Z,4.10
2023-03-05T01:43:33.493Z,4.00
2023-03-05T01:46:24.916Z,4.00
2023-03-05T01:49:03.437Z,4.10
2023-03-05T01:51:36.250Z,4.00
2023-03-05T01:54:05.943Z,3.80
2023-03-05T01:56:32.922Z,3.90
2023-03-05T01:59:03.936Z,3.90
2023-03-05T02:01:35.084Z,3.80
2023-03-05T02:04:02.784Z,3.90
2023-03-05T02:06:30.636Z,4.00
2023-03-05T02:08:57.416Z,4.00
2023-03-05T02:11:24.649Z,3.80
2023-03-05T02:13:51.453Z,3.80
2023-03-05T02:16:18.392Z,3.90
2023-03-05T02:18:45.270Z,3.90
2023-03-05T02:21:12.533Z,4.00
2023-03-05T02:23:39.597Z,3.90
2023-03-05T02:26:09.728Z,3.50
2023-03-05T02:28:50.884Z,3.10
2023-03-05T02:31:21.144Z,2.90
2023-03-05T02:33:49.041Z,2.80
2023-03-05T02:36:15.917Z,2.50
2023-03-05T02:38:43.633Z,2.20
2023-03-05T02:41:11.235Z,2.30
2023-03-05T02:43:38.361Z,2.30
2023-03-05T02:46:05.694Z,2.20
2023-03-05T02:48:33.916Z,2.20
2023-03-05T02:51:03.083Z,2.40
2023-03-05T02:53:29.858Z,2.30
2023-03-05T02:55:57.108Z,2.40
2023-03-05T02:58:23.955Z,2.30
2023-03-05T03:00:50.767Z,2.20
2023-03-05T03:03:17.627Z,2.00
2023-03-05T03:05:44.403Z,1.90
2023-03-05T03:08:11.481Z,1.90
2023-03-05T03:10:38.931Z,1.80
2023-03-05T03:13:05.692Z,1.80
2023-03-05T03:15:33.251Z,1.80
2023-03-05T03:17:59.967Z,2.00
2023-03-05T03:20:27.191Z,2.10
2023-03-05T03:22:53.965Z,2.50
2023-03-05T03:25:23.554Z,2.30
2023-03-05T03:27:50.310Z,2.40
2023-03-05T03:30:17.819Z,2.60
2023-03-05T03:32:45.546Z,2.60
2023-03-05T03:35:13.777Z,2.70
2023-03-05T03:37:40.733Z,2.60
2023-03-05T03:40:09.238Z,2.40
2023-03-05T03:42:36.134Z,2.70
2023-03-05T03:45:04.374Z,2.80
2023-03-05T03:47:31.264Z,2.80
2023-03-05T03:49:59.316Z,2.60
2023-03-05T03:52:26.597Z,2.70
2023-03-05T03:54:56.203Z,2.70
2023-03-05T03:57:22.994Z,2.60
2023-03-05T03:59:50.683Z,2.70
2023-03-05T04:02:17.689Z,2.80
2023-03-05T04:04:45.749Z,2.80
2023-03-05T04:07:12.892Z,2.80
2023-03-05T04:09:39.812Z,2.80
2023-03-05T04:12:06.998Z,2.70
2023-03-05T04:14:34.510Z,2.80
2023-03-05T04:17:01.298Z,2.60
2023-03-05T04:19:31.100Z,2.50
2023-03-05T04:21:59.361Z,2.30
2023-03-05T04:24:26.187Z,2.50
2023-03-05T04:26:53.578Z,2.60
2023-03-05T04:29:20.571Z,2.50
2023-03-05T04:31:47.786Z,2.50
2023-03-05T04:34:14.533Z,2.80
2023-03-05T04:36:41.704Z,2.70
2023-03-05T04:39:08.625Z,2.60
2023-03-05T04:41:35.812Z,2.60
2023-03-05T04:44:02.957Z,2.50
2023-03-05T04:46:29.779Z,2.40
2023-03-05T04:48:58.646Z,2.50
2023-03-05T04:51:25.760Z,2.60
2023-03-05T04:53:52.492Z,2.40
2023-03-05T04:56:19.633Z,2.50
2023-03-05T04:58:46.804Z,2.30
2023-03-05T05:01:14.614Z,2.10
2023-03-05T05:03:41.403Z,2.20
2023-03-05T05:06:08.509Z,2.50
2023-03-05T05:08:35.714Z,2.60
2023-03-05T05:11:05.924Z,2.50
2023-03-05T05:13:34.364Z,2.60
2023-03-05T05:16:01.754Z,2.60
2023-03-05T05:18:28.640Z,2.50
2023-03-05T05:20:55.550Z,2.50
2023-03-05T05:23:22.448Z,2.50
2023-03-05T05:26:00.880Z,2.50
2023-03-05T05:28:28.694Z,2.50
2023-03-05T05:30:57.518Z,2.60
2023-03-05T05:33:25.865Z,2.50
2023-03-05T05:35:52.737Z,2.40
2023-03-05T05:38:20.166Z,2.40
2023-03-05T05:40:46.937Z,2.50
2023-03-05T05:43:14.358Z,2.40
2023-03-05T05:45:41.555Z,2.40
2023-03-05T05:48:08.532Z,2.40
2023-03-05T05:50:35.700Z,2.50
2023-03-05T05:53:02.454Z,2.40
2023-03-05T05:55:29.570Z,2.60
2023-03-05T05:57:57.006Z,2.60
2023-03-05T06:00:23.932Z,2.80
2023-03-05T06:02:51.255Z,2.80
2023-03-05T06:05:18.034Z,2.80
2023-03-05T06:07:44.845Z,2.50
2023-03-05T06:10:14.922Z,2.40
2023-03-05T06:12:41.729Z,2.30
2023-03-05T06:15:08.994Z,2.20
2023-03-05T06:17:35.792Z,2.10
2023-03-05T06:20:04.763Z,2.10
2023-03-05T06:22:31.543Z,2.10
2023-03-05T06:24:58.659Z,2.20
2023-03-05T06:27:25.384Z,2.20
2023-03-05T06:29:57.056Z,2.30
2023-03-05T06:32:24.112Z,2.40
2023-03-05T06:34:51.505Z,2.50
2023-03-05T06:37:18.426Z,2.60
2023-03-05T06:39:46.181Z,2.50
2023-03-05T06:42:12.965Z,2.40
2023-03-05T06:44:43.518Z,2.30
2023-03-05T06:47:12.960Z,2.20
2023-03-05T06:49:41.178Z,2.10
2023-03-05T06:52:10.616Z,2.10
2023-03-05T06:54:37.980Z,2.10
2023-03-05T06:57:05.128Z,2.10
2023-03-05T06:59:31.878Z,2.20
2023-03-05T07:01:59.037Z,2.30
2023-03-05T07:04:25.820Z,2.30
2023-03-05T07:06:52.524Z,2.40
2023-03-05T07:09:20.528Z,2.60
2023-03-05T07:11:47.260Z,2.70
2023-03-05T07:14:14.426Z,2.80
2023-03-05T07:16:41.218Z,2.80
2023-03-05T07:19:08.403Z,2.70
2023-03-05T07:21:39.066Z,2.80
2023-03-05T07:24:09.238Z,2.80
2023-03-05T07:26:36.598Z,2.90
2023-03-05T07:29:04.132Z,3.00
2023-03-05T07:31:32.449Z,3.00
2023-03-05T07:34:02.964Z,3.00
2023-03-05T07:36:30.513Z,2.90
2023-03-05T07:38:57.736Z,2.90
2023-03-05T07:41:24.593Z,2.80
2023-03-05T07:43:54.235Z,3.00
2023-03-05T07:46:23.927Z,3.10
2023-03-05T07:48:51.415Z,3.10
2023-03-05T07:51:20.417Z,3.20
2023-03-05T07:53:49.080Z,3.20
2023-03-05T07:56:26.055Z,3.30
2023-03-05T07:58:55.831Z,3.30
2023-03-05T08:01:23.122Z,3.50
2023-03-05T08:03:50.120Z,3.60
2023-03-05T08:06:17.587Z,3.70
2023-03-05T08:08:44.500Z,3.90
2023-03-05T08:11:14.214Z,3.90
2023-03-05T08:13:42.249Z,4.00
2023-03-05T08:16:15.308Z,4.30
2023-03-05T08:18:43.061Z,4.20
2023-03-05T08:21:27.553Z,4.10
2023-03-05T08:23:54.283Z,3.80
2023-03-05T08:26:23.591Z,3.30
2023-03-05T08:28:50.773Z,3.10
2023-03-05T08:31:20.576Z,2.90
2023-03-05T08:33:49.205Z,2.80
2023-03-05T08:36:15.956Z,2.90
2023-03-05T08:38:44.616Z,3.10
2023-03-05T08:41:11.625Z,3.10
2023-03-05T08:43:39.299Z,3.20
2023-03-05T08:46:06.485Z,3.30
2023-03-05T08:48:34.573Z,3.50
2023-03-05T08:51:09.438Z,3.50
2023-03-05T08:53:36.712Z,3.70
2023-03-05T08:56:03.897Z,3.70
2023-03-05T08:58:31.284Z,3.90
2023-03-05T09:00:58.008Z,4.00
2023-03-05T09:03:24.798Z,4.10
2023-03-05T09:05:51.917Z,4.20
2023-03-05T09:08:19.079Z,4.10
2023-03-05T09:10:46.689Z,4.00
2023-03-05T09:13:14.141Z,3.80
2023-03-05T09:15:41.003Z,3.80
2023-03-05T09:18:09.646Z,3.60
2023-03-05T09:20:36.699Z,3.50
2023-03-05T09:23:04.229Z,3.20
2023-03-05T09:25:30.968Z,3.00
2023-03-05T09:27:57.737Z,2.90
2023-03-05T09:30:24.986Z,3.10
2023-03-05T09:32:51.963Z,3.40
2023-03-05T09:35:20.169Z,3.60
2023-03-05T09:37:48.302Z,3.90
2023-03-05T09:40:18.712Z,4.20
2023-03-05T09:43:01.019Z,4.50
2023-03-05T09:45:29.642Z,4.50
2023-03-05T09:48:05.249Z,4.60
2023-03-05T09:50:35.182Z,4.60
2023-03-05T09:53:24.001Z,4.50
2023-03-05T09:55:56.362Z,4.50
2023-03-05T09:58:56.291Z,4.40
2023-03-05T10:01:34.682Z,4.30
2023-03-05T10:04:10.464Z,4.70
2023-03-05T10:06:47.682Z,5.00
2023-03-05T10:09:35.371Z,5.10
2023-03-05T10:12:08.767Z,5.20
2023-03-05T10:14:39.368Z,5.40
2023-03-05T10:17:44.002Z,5.30
2023-03-05T10:20:35.587Z,5.30
2023-03-05T10:23:29.683Z,5.30
2023-03-05T10:26:06.219Z,5.60
2023-03-05T10:28:38.738Z,5.50
2023-03-05T10:31:13.007Z,5.40
2023-03-05T10:33:52.980Z,5.50
2023-03-05T10:36:22.789Z,5.60
2023-03-05T10:39:08.345Z,5.60
2023-03-05T10:42:05.906Z,5.30
2023-03-05T10:44:41.440Z,5.20
2023-03-05T10:47:28.057Z,4.80
2023-03-05T10:49:57.234Z,4.70
2023-03-05T10:52:37.623Z,4.60
2023-03-05T10:55:16.789Z,4.60
2023-03-05T10:57:44.068Z,4.50
2023-03-05T11:00:24.216Z,4.30
2023-03-05T11:02:58.508Z,4.00
2023-03-05T11:05:50.527Z,3.90
2023-03-05T11:08:26.463Z,3.80
2023-03-05T11:11:06.115Z,3.80
2023-03-05T11:13:34.420Z,3.80
2023-03-05T11:16:03.970Z,3.90
2023-03-05T11:18:34.632Z,4.10
2023-03-05T11:21:10.849Z,4.20
2023-03-05T11:23:37.835Z,4.20
2023-03-05T11:26:21.942Z,4.10
2023-03-05T11:28:51.919Z,4.20
2023-03-05T11:31:18.782Z,4.30
2023-03-05T11:33:54.389Z,4.30
2023-03-05T11:36:24.548Z,4.50
2023-03-05T11:38:57.959Z,4.60
2023-03-05T11:41:29.700Z,4.70
2023-03-05T11:43:58.885Z,5.00
2023-03-05T11:46:26.751Z,5.10
2023-03-05T11:48:54.985Z,5.30
2023-03-05T11:51:51.470Z,5.60
2023-03-05T11:54:25.017Z,5.90
2023-03-05T11:56:52.797Z,6.10
2023-03-05T11:59:34.654Z,6.00
2023-03-05T12:02:01.519Z,5.90
2023-03-05T12:04:29.689Z,5.70
2023-03-05T12:07:02.820Z,5.60
2023-03-05T12:09:53.145Z,5.50
2023-03-05T12:12:45.892Z,5.30
2023-03-05T12:15:12.681Z,5.10
2023-03-05T12:17:57.546Z,4.70
2023-03-05T12:20:41.975Z,4.40
2023-03-05T12:23:17.963Z,4.40
2023-03-05T12:25:57.058Z,4.70
2023-03-05T12:28:36.088Z,4.80
2023-03-05T12:31:18.919Z,5.10
2023-03-05T12:33:45.763Z,5.60
2023-03-05T12:36:21.547Z,5.90
2023-03-05T12:38:53.393Z,6.10
2023-03-05T12:41:22.921Z,5.90
2023-03-05T12:44:08.056Z,5.70
2023-03-05T12:46:40.192Z,5.50
2023-03-05T12:49:20.278Z,4.90
2023-03-05T12:51:52.360Z,4.00
2023-03-05T12:54:41.177Z,3.50
2023-03-05T12:57:24.438Z,3.30
2023-03-05T13:00:06.197Z,3.30
2023-03-05T13:02:45.781Z,3.10
2023-03-05T13:05:22.335Z,3.10
2023-03-05T13:07:50.469Z,3.10
2023-03-05T13:10:29.954Z,3.10
2023-03-05T13:12:58.558Z,3.10
2023-03-05T13:15:26.680Z,3.00
2023-03-05T13:18:00.991Z,3.10
2023-03-05T13:20:40.611Z,3.00
2023-03-05T13:23:20.865Z,2.90
2023-03-05T13:26:17.494Z,2.80
2023-03-05T13:28:46.052Z,2.60
2023-03-05T13:31:19.493Z,2.40
2023-03-05T13:33:57.645Z,2.30
2023-03-05T13:36:26.121Z,2.30
2023-03-05T13:38:54.525Z,2.30
2023-03-05T13:41:24.793Z,2.40
2023-03-05T13:44:01.789Z,2.40
2023-03-05T13:46:39.100Z,2.40
2023-03-05T13:49:26.268Z,2.30
2023-03-05T13:51:55.665Z,2.20
2023-03-05T13:54:25.243Z,2.30
2023-03-05T13:56:59.389Z,2.30
2023-03-05T13:59:30.160Z,2.40
2023-03-05T14:01:59.278Z,2.40
2023-03-05T14:04:37.933Z,2.50
2023-03-05T14:07:05.814Z,2.50
2023-03-05T14:09:46.065Z,2.60
2023-03-05T14:12:34.985Z,2.70
2023-03-05T14:15:02.804Z,2.80
2023-03-05T14:17:44.433Z,3.00
2023-03-05T14:20:14.735Z,3.20
2023-03-05T14:22:45.307Z,3.40
2023-03-05T14:25:30.196Z,3.40
2023-03-05T14:27:57.821Z,3.40
2023-03-05T14:30:27.826Z,3.50
2023-03-05T14:32:55.927Z,3.50
2023-03-05T14:35:26.997Z,3.60
2023-03-05T14:37:57.319Z,3.60
2023-03-05T14:40:33.654Z,3.70
2023-03-05T14:43:06.420Z,3.70
2023-03-05T14:45:43.765Z,3.80
2023-03-05T14:48:13.555Z,3.70
2023-03-05T14:50:56.468Z,3.90
2023-03-05T14:53:27.195Z,4.00
2023-03-05T14:55:57.236Z,3.90
2023-03-05T14:58:27.949Z,3.80
2023-03-05T15:00:55.558Z,3.90
2023-03-05T15:03:23.758Z,4.00
2023-03-05T15:05:53.918Z,4.20
2023-03-05T15:08:30.283Z,4.20
2023-03-05T15:10:57.858Z,4.10
2023-03-05T15:13:24.850Z,4.40
2023-03-05T15:15:53.125Z,4.30
2023-03-05T15:18:21.744Z,4.10
2023-03-05T15:20:49.507Z,3.90
2023-03-05T15:23:16.898Z,3.60
2023-03-05T15:25:43.758Z,3.40
2023-03-05T15:28:10.585Z,3.20
2023-03-05T15:30:40.425Z,3.10
2023-03-05T15:33:18.149Z,3.00
2023-03-05T15:35:45.014Z,3.00
2023-03-05T15:38:11.895Z,3.00
2023-03-05T15:40:38.655Z,3.00
2023-03-05T15:43:05.473Z,3.00
2023-03-05T15:45:32.350Z,2.90
2023-03-05T15:47:59.199Z,2.80
2023-03-05T15:50:25.949Z,2.80
2023-03-05T15:52:52.753Z,2.80
2023-03-05T15:55:20.217Z,2.70
2023-03-05T15:57:52.339Z,2.80
2023-03-05T16:00:25.548Z,2.80
2023-03-05T16:02:53.018Z,2.70
2023-03-05T16:05:19.790Z,2.90
2023-03-05T16:07:50.257Z,3.10
2023-03-05T16:10:22.240Z,2.90
2023-03-05T16:12:53.307Z,3.00
2023-03-05T16:15:22.093Z,3.10
2023-03-05T16:17:54.442Z,3.20
2023-03-05T16:20:22.151Z,3.00
2023-03-05T16:22:49.844Z,3.00
2023-03-05T16:25:17.599Z,2.90
2023-03-05T16:27:45.403Z,3.10
2023-03-05T16:30:15.023Z,3.30
2023-03-05T16:32:42.297Z,3.30
2023-03-05T16:35:12.013Z,3.30
2023-03-05T16:37:40.193Z,3.50
2023-03-05T16:40:08.775Z,3.50
2023-03-05T16:42:35.606Z,3.40
2023-03-05T16:45:03.990Z,3.10
2023-03-05T16:47:31.091Z,3.00
2023-03-05T16:49:57.916Z,3.30
2023-03-05T16:52:24.977Z,3.30
2023-03-05T16:54:51.768Z,3.10
2023-03-05T16:57:18.884Z,2.90
2023-03-05T16:59:46.837Z,2.80
2023-03-05T17:02:15.374Z,2.70
2023-03-05T17:04:44.889Z,2.40
2023-03-05T17:07:12.134Z,2.40
2023-03-05T17:09:41.254Z,2.40
2023-03-05T17:12:09.024Z,2.30
2023-03-05T17:14:36.145Z,2.00
2023-03-05T17:17:03.377Z,1.60
2023-03-05T17:19:30.756Z,1.60
2023-03-05T17:21:58.148Z,1.60
2023-03-05T17:24:28.918Z,1.50
2023-03-05T17:26:56.001Z,1.50
2023-03-05T17:29:25.929Z,1.40
2023-03-05T17:31:53.417Z,1.30
2023-03-05T17:34:33.240Z,1.20
2023-03-05T17:37:02.663Z,1.20
2023-03-05T17:39:32.495Z,1.10
2023-03-05T17:41:59.425Z,1.00
2023-03-05T17:44:26.389Z,1.00
2023-03-05T17:46:53.150Z,1.20
2023-03-05T17:49:22.179Z,1.30
2023-03-05T17:51:49.314Z,1.40
2023-03-05T17:54:16.095Z,1.30
2023-03-05T17:56:43.170Z,1.30
2023-03-05T17:59:10.523Z,1.40
2023-03-05T18:01:40.423Z,1.60
2023-03-05T18:04:07.509Z,1.60
2023-03-05T18:06:35.658Z,1.60
2023-03-05T18:09:02.459Z,1.50
2023-03-05T18:11:30.671Z,1.70
2023-03-05T18:13:57.898Z,1.80
2023-03-05T18:16:26.280Z,1.90
2023-03-05T18:18:53.493Z,2.10
2023-03-05T18:21:21.711Z,2.40
2023-03-05T18:23:49.203Z,2.40
2023-03-05T18:26:15.997Z,2.60
2023-03-05T18:28:43.171Z,2.50
2023-03-05T18:31:10.447Z,2.30
2023-03-05T18:33:38.855Z,2.20
2023-03-05T18:36:07.100Z,2.40
2023-03-05T18:38:35.219Z,2.50
2023-03-05T18:41:03.761Z,2.50
2023-03-05T18:43:31.383Z,2.50
2023-03-05T18:45:58.895Z,2.50
2023-03-05T18:48:25.832Z,2.40
2023-03-05T18:50:53.680Z,2.30
2023-03-05T18:53:22.643Z,2.40
2023-03-05T18:55:51.357Z,2.40
2023-03-05T18:58:18.814Z,2.40
2023-03-05T19:00:49.056Z,2.50
2023-03-05T19:03:22.866Z,2.40
2023-03-05T19:05:51.361Z,2.40
2023-03-05T19:08:21.063Z,2.50
2023-03-05T19:10:48.142Z,2.20
2023-03-05T19:13:44.370Z,2.20
2023-03-05T19:16:19.181Z,2.20
2023-03-05T19:19:20.093Z,2.30
2023-03-05T19:21:56.686Z,2.40
2023-03-05T19:24:25.224Z,2.30
2023-03-05T19:26:55.752Z,2.30
2023-03-05T19:29:24.053Z,2.20
2023-03-05T19:31:52.191Z,2.20
2023-03-05T19:34:20.944Z,2.20
2023-03-05T19:36:48.179Z,2.10
2023-03-05T19:39:15.662Z,2.20
2023-03-05T19:41:43.007Z,2.20
2023-03-05T19:44:10.064Z,2.10
2023-03-05T19:46:37.377Z,2.10
2023-03-05T19:49:04.826Z,2.10
2023-03-05T19:51:32.245Z,1.90
2023-03-05T19:54:03.833Z,1.90
2023-03-05T19:56:33.491Z,1.90
2023-03-05T19:59:01.088Z,1.90
2023-03-05T20:01:30.316Z,2.00
2023-03-05T20:03:59.471Z,1.90
2023-03-05T20:06:37.812Z,2.00
2023-03-05T20:09:06.913Z,1.80
2023-03-05T20:11:35.007Z,1.80
2023-03-05T20:14:02.185Z,1.80
2023-03-05T20:16:38.016Z,1.80
2023-03-05T20:19:07.466Z,2.00
2023-03-05T20:21:38.722Z,1.80
2023-03-05T20:24:09.937Z,1.60
2023-03-05T20:26:45.440Z,1.50
2023-03-05T20:29:17.501Z,1.40
2023-03-05T20:31:45.699Z,1.40
2023-03-05T20:34:14.645Z,1.30
2023-03-05T20:36:41.962Z,1.50
2023-03-05T20:39:09.050Z,1.40
2023-03-05T20:41:37.942Z,1.40
2023-03-05T20:44:05.762Z,1.40
2023-03-05T20:46:52.297Z,1.40
2023-03-05T20:49:20.218Z,1.40
2023-03-05T20:51:50.040Z,1.30
2023-03-05T20:54:17.576Z,1.40
2023-03-05T20:56:44.712Z,1.40
2023-03-05T20:59:11.760Z,1.40
2023-03-05T21:01:40.280Z,1.40
2023-03-05T21:04:08.314Z,1.50
2023-03-05T21:06:36.025Z,1.50
2023-03-05T21:09:03.276Z,1.40
2023-03-05T21:11:30.100Z,1.50
2023-03-05T21:13:56.910Z,1.40
2023-03-05T21:16:27.060Z,1.50
2023-03-05T21:18:56.048Z,1.50
2023-03-05T21:21:23.927Z,1.60
2023-03-05T21:23:50.814Z,1.60
2023-03-05T21:26:18.227Z,1.60
2023-03-05T21:28:45.139Z,1.90
2023-03-05T21:31:17.334Z,2.00
2023-03-05T21:33:47.275Z,1.90
2023-03-05T21:36:19.134Z,1.80
2023-03-05T21:38:49.423Z,1.80
2023-03-05T21:41:18.139Z,1.70
2023-03-05T21:43:45.429Z,1.70
2023-03-05T21:46:12.611Z,1.80
2023-03-05T21:48:39.781Z,1.80
2023-03-05T21:51:51.484Z,1.70
2023-03-05T21:54:18.455Z,1.80
2023-03-05T21:56:45.871Z,1.70
2023-03-05T21:59:12.773Z,1.70
2023-03-05T22:01:39.586Z,1.70
2023-03-05T22:04:06.440Z,1.60
2023-03-05T22:06:33.672Z,1.60
2023-03-05T22:09:00.475Z,1.60
2023-03-05T22:11:27.191Z,1.60
2023-03-05T22:13:54.372Z,1.60
2023-03-05T22:16:25.738Z,1.40
2023-03-05T22:18:52.876Z,1.60
2023-03-05T22:21:22.883Z,1.70
2023-03-05T22:23:50.047Z,1.70
2023-03-05T22:26:17.233Z,1.70
2023-03-05T22:28:43.963Z,1.60
2023-03-05T22:31:10.902Z,1.60
2023-03-05T22:33:38.107Z,1.60
2023-03-05T22:36:10.678Z,1.60
2023-03-05T22:38:37.657Z,1.60
2023-03-05T22:41:08.652Z,1.70
2023-03-05T22:43:36.177Z,1.70
2023-03-05T22:46:14.267Z,1.70
2023-03-05T22:48:41.985Z,1.70
2023-03-05T22:51:09.894Z,1.70
2023-03-05T22:53:37.638Z,1.70
2023-03-05T22:56:10.191Z,1.70
2023-03-05T22:58:37.459Z,1.80
2023-03-05T23:01:21.651Z,1.80
2023-03-05T23:04:28.892Z,1.80
2023-03-05T23:06:56.499Z,1.70
2023-03-05T23:09:23.532Z,1.70
2023-03-05T23:11:50.711Z,1.80
2023-03-05T23:14:17.532Z,1.70
2023-03-05T23:16:44.708Z,1.70
2023-03-05T23:19:11.522Z,1.70
2023-03-05T23:21:38.305Z,1.60
2023-03-05T23:24:06.075Z,1.60
2023-03-05T23:26:33.221Z,1.50
2023-03-05T23:28:59.948Z,1.50
2023-03-05T23:31:27.203Z,1.60
2023-03-05T23:33:53.971Z,1.50
2023-03-05T23:36:24.830Z,1.30
2023-03-05T23:38:56.737Z,1.00
2023-03-05T23:41:23.875Z,0.90
2023-03-05T23:43:50.689Z,1.00
2023-03-05T23:46:17.952Z,1.00
2023-03-05T23:48:44.719Z,0.90
2023-03-05T23:51:11.831Z,0.90
2023-03-05T23:53:38.602Z,0.80
2023-03-05T23:56:10.612Z,0.90
2023-03-05T23:58:38.342Z,0.80
